Time;durP1;ratioP1;P1;durP2;ratioP2;P2;SDS_P1;SDS_P2;PMS_P1;PMS_P2;Temp;Humidity;BMP_temperature;BMP_pressure;BME280_temperature;BME280_humidity;BME280_pressure;Samples;Min_cycle;Max_cycle;Signal;HPM_P1;HPM_P2
2021/12/20 00:00:20;;;;;;;17.55;3.40;;;;;;;5.51;100.00;102756.75;4741876;30;20059;-76
2021/12/20 00:02:57;;;;;;;15.23;3.03;;;;;;;5.45;100.00;102770.38;4739680;30;20261;-76
2021/12/20 00:05:26;;;;;;;11.48;3.10;;;;;;;5.38;100.00;102766.53;4708661;30;20042;-77
2021/12/20 00:07:54;;;;;;;15.00;3.25;;;;;;;5.32;100.00;102767.91;4716422;30;20197;-76
2021/12/20 00:10:22;;;;;;;14.63;3.38;;;;;;;5.25;100.00;102767.59;4727940;30;20051;-77
2021/12/20 00:12:51;;;;;;;23.63;4.05;;;;;;;5.19;100.00;102775.06;4723325;30;20396;-76
2021/12/20 00:15:20;;;;;;;18.27;3.88;;;;;;;5.13;100.00;102769.50;4727512;30;20052;-77
2021/12/20 00:17:49;;;;;;;11.93;2.70;;;;;;;5.08;100.00;102769.25;4742552;30;20398;-76
2021/12/20 00:20:21;;;;;;;18.70;3.20;;;;;;;5.03;100.00;102770.69;4730664;30;20511;-76
2021/12/20 00:22:49;;;;;;;23.20;3.53;;;;;;;4.99;100.00;102755.66;4724902;30;20289;-76
2021/12/20 00:25:18;;;;;;;13.85;4.07;;;;;;;4.98;100.00;102750.34;4698757;30;20052;-77
2021/12/20 00:27:50;;;;;;;19.73;3.88;;;;;;;4.97;100.00;102764.19;4708528;30;20079;-77
2021/12/20 00:30:19;;;;;;;27.63;4.18;;;;;;;4.94;100.00;102770.16;4698887;30;20056;-77
2021/12/20 00:32:48;;;;;;;12.85;3.58;;;;;;;4.92;100.00;102769.19;4729744;30;20274;-76
2021/12/20 00:35:19;;;;;;;21.75;4.95;;;;;;;4.88;100.00;102764.59;4739971;30;20055;-77
2021/12/20 00:40:42;;;;;;;19.73;3.88;;;;;;;4.83;100.00;102759.09;4700275;30;20152;-76
2021/12/20 00:43:11;;;;;;;18.60;3.75;;;;;;;4.81;100.00;102770.28;4728214;30;20060;-76
2021/12/20 00:45:39;;;;;;;18.48;3.55;;;;;;;4.76;100.00;102772.59;4678240;30;20267;-76
2021/12/20 00:48:08;;;;;;;17.08;3.00;;;;;;;4.74;100.00;102775.94;4709718;30;20048;-77
2021/12/20 00:50:40;;;;;;;17.07;3.17;;;;;;;4.69;100.00;102770.47;4699475;30;20083;-76
2021/12/20 00:53:10;;;;;;;15.25;3.00;;;;;;;4.64;100.00;102770.19;4728162;30;20057;-77
2021/12/20 00:55:39;;;;;;;10.80;3.05;;;;;;;4.58;100.00;102772.47;4698216;30;20049;-77
2021/12/20 00:58:08;;;;;;;15.87;3.87;;;;;;;4.54;100.00;102773.09;4713469;30;20040;-76
2021/12/20 01:00:41;;;;;;;19.00;3.47;;;;;;;4.48;100.00;102775.34;4700749;30;20285;-76
2021/12/20 01:03:11;;;;;;;19.35;3.97;;;;;;;4.41;100.00;102781.00;4768072;30;20051;-76
2021/12/20 01:05:40;;;;;;;;;;;;;;;4.33;100.00;102774.41;4719770;30;20273;-75
2021/12/20 01:08:10;;;;;;;19.65;3.67;;;;;;;4.26;100.00;102779.28;4749593;30;19926;-76
2021/12/20 01:10:48;;;;;;;8.77;3.53;;;;;;;4.19;100.00;102766.66;4713476;30;20243;-77
2021/12/20 01:13:21;;;;;;;18.52;3.40;;;;;;;4.14;100.00;102768.13;4730633;30;20044;-76
2021/12/20 01:15:53;;;;;;;14.73;3.35;;;;;;;4.08;100.00;102775.56;4710415;30;20454;-77
2021/12/20 01:18:22;;;;;;;21.23;3.42;;;;;;;4.04;100.00;102773.56;4749955;30;20043;-76
2021/12/20 01:20:51;;;;;;;28.70;4.15;;;;;;;3.97;100.00;102784.44;4750280;30;20040;-76
2021/12/20 01:23:20;;;;;;;19.00;3.40;;;;;;;3.90;100.00;102789.28;4713202;30;20060;-76
2021/12/20 01:25:48;;;;;;;20.65;4.00;;;;;;;3.85;100.00;102788.09;4737333;30;20055;-76
2021/12/20 01:28:18;;;;;;;20.83;3.58;;;;;;;3.78;100.00;102788.53;4734795;30;20097;-76
2021/12/20 01:30:46;;;;;;;15.32;2.97;;;;;;;3.74;100.00;102772.59;4722754;30;20052;-76
2021/12/20 01:33:15;;;;;;;19.60;3.75;;;;;;;3.68;100.00;102773.13;4725214;30;20056;-77
2021/12/20 01:35:44;;;;;;;19.30;3.45;;;;;;;3.65;100.00;102788.59;4732685;30;20052;-76
2021/12/20 01:38:12;;;;;;;17.52;4.60;;;;;;;3.60;100.00;102776.97;4725009;30;20055;-76
2021/12/20 01:40:41;;;;;;;26.05;4.75;;;;;;;3.56;100.00;102777.56;4721608;30;20055;-76
2021/12/20 01:43:11;;;;;;;17.23;3.83;;;;;;;3.53;100.00;102779.97;4746781;30;20044;-76
2021/12/20 01:45:40;;;;;;;17.05;3.40;;;;;;;3.46;100.00;102774.38;4699998;30;20301;-76
2021/12/20 01:48:11;;;;;;;20.85;4.05;;;;;;;3.42;100.00;102790.66;4747150;30;20059;-76
2021/12/20 01:53:29;;;;;;;14.88;2.70;;;;;;;3.33;100.00;102787.44;4725422;30;20521;-76
2021/12/20 01:55:58;;;;;;;16.88;3.97;;;;;;;3.28;100.00;102783.63;4729790;30;20055;-76
2021/12/20 01:58:28;;;;;;;19.58;3.17;;;;;;;3.22;100.00;102791.06;4766873;30;20058;-77
2021/12/20 02:03:42;;;;;;;19.42;3.85;;;;;;;3.15;100.00;102786.25;4717153;30;20079;-78
2021/12/20 02:06:21;;;;;;;13.75;3.58;;;;;;;3.10;100.00;102794.69;4729262;30;20048;-76
2021/12/20 02:08:49;;;;;;;19.27;3.40;;;;;;;3.07;100.00;102793.59;4734159;30;20059;-77
2021/12/20 02:11:20;;;;;;;14.48;3.50;;;;;;;3.04;100.00;102788.16;4709925;30;20060;-76
2021/12/20 02:13:49;;;;;;;24.23;3.55;;;;;;;3.03;100.00;102797.69;4756921;30;20279;-76
2021/12/20 02:16:19;;;;;;;17.65;3.42;;;;;;;2.98;100.00;102804.28;4751205;30;20062;-77
2021/12/20 02:18:48;;;;;;;13.52;3.45;;;;;;;2.96;100.00;102807.59;4748398;30;20044;-78
2021/12/20 02:21:17;;;;;;;18.20;3.10;;;;;;;2.91;100.00;102802.09;4744126;30;20063;-76
2021/12/20 02:23:48;;;;;;;26.65;4.25;;;;;;;2.88;100.00;102801.91;4735531;30;20406;-77
2021/12/20 02:26:19;;;;;;;21.13;4.65;;;;;;;2.83;100.00;102806.78;4708429;30;20062;-76
2021/12/20 02:28:50;;;;;;;22.65;4.63;;;;;;;2.81;100.00;102805.78;4742830;30;20063;-77
2021/12/20 02:39:56;;;;;;;13.13;3.37;;;;;;;2.67;100.00;102796.19;4737174;30;20064;-78
2021/12/20 02:42:30;;;;;;;21.35;3.63;;;;;;;2.65;100.00;102803.00;4708619;30;20056;-77
2021/12/20 02:45:10;;;;;;;28.10;4.40;;;;;;;2.62;100.00;102790.66;4744234;30;20052;-76
2021/12/20 02:47:45;;;;;;;16.40;5.22;;;;;;;2.59;100.00;102790.47;4712989;30;20052;-76
2021/12/20 02:50:15;;;;;;;18.55;3.55;;;;;;;2.58;100.00;102790.34;4724168;30;20166;-76
2021/12/20 02:52:43;;;;;;;23.80;3.83;;;;;;;2.55;100.00;102796.25;4730587;30;20048;-78
2021/12/20 02:55:12;;;;;;;24.15;6.13;;;;;;;2.52;100.00;102790.84;4716872;30;20052;-77
2021/12/20 02:57:40;;;;;;;21.17;6.68;;;;;;;2.48;100.00;102792.34;4721317;30;20043;-76
2021/12/20 03:00:10;;;;;;;23.60;5.72;;;;;;;2.47;100.00;102787.03;4751173;30;20056;-76
2021/12/20 03:02:38;;;;;;;18.05;5.10;;;;;;;2.44;100.00;102784.19;4742125;30;20552;-76
2021/12/20 03:05:07;;;;;;;19.73;4.22;;;;;;;2.42;100.00;102778.91;4744743;30;20450;-76
2021/12/20 03:07:45;;;;;;;14.07;3.67;;;;;;;2.41;100.00;102781.41;4753738;30;20059;-76
2021/12/20 03:10:15;;;;;;;22.73;4.22;;;;;;;2.39;100.00;102783.91;4752149;30;20280;-76
2021/12/20 03:12:45;;;;;;;22.67;4.20;;;;;;;2.38;100.00;102786.41;4757432;30;20059;-76
2021/12/20 03:15:19;;;;;;;19.17;3.95;;;;;;;2.33;100.00;102783.50;4744693;30;20055;-76
2021/12/20 03:17:52;;;;;;;18.35;4.15;;;;;;;2.30;100.00;102798.88;4745142;30;20060;-76
2021/12/20 03:20:22;;;;;;;19.20;3.35;;;;;;;2.26;100.00;102808.19;4747076;30;20272;-77
2021/12/20 03:22:50;;;;;;;20.92;3.72;;;;;;;2.24;100.00;102804.56;4747834;30;20052;-77
2021/12/20 03:25:21;;;;;;;17.95;3.40;;;;;;;2.19;100.00;102800.75;4756203;30;20196;-77
2021/12/20 03:27:49;;;;;;;13.32;3.67;;;;;;;2.14;100.00;102790.03;4752813;30;20388;-77
2021/12/20 03:30:18;;;;;;;17.27;4.22;;;;;;;2.11;100.00;102794.13;4739215;30;20181;-77
2021/12/20 03:32:46;;;;;;;12.75;3.50;;;;;;;2.09;100.00;102800.94;4734425;30;20052;-77
2021/12/20 03:35:15;;;;;;;20.70;4.82;;;;;;;2.05;100.00;102796.31;4713942;30;20217;-77
2021/12/20 03:37:43;;;;;;;20.05;3.75;;;;;;;2.01;100.00;102794.31;4733538;30;20056;-77
2021/12/20 03:40:12;;;;;;;15.02;3.55;;;;;;;1.97;100.00;102794.88;4734906;30;20357;-77
2021/12/20 03:42:43;;;;;;;20.23;3.42;;;;;;;1.94;100.00;102803.38;4764914;30;20060;-77
2021/12/20 03:45:14;;;;;;;19.85;3.50;;;;;;;1.91;100.00;102793.66;4708567;30;20048;-78
2021/12/20 03:47:43;;;;;;;23.25;4.32;;;;;;;1.88;100.00;102801.25;4744863;30;20052;-76
2021/12/20 03:50:14;;;;;;;16.90;3.03;;;;;;;1.85;100.00;102814.03;4726257;30;20052;-77
2021/12/20 03:52:42;;;;;;;16.63;3.53;;;;;;;1.83;100.00;102807.81;4745803;30;20063;-76
2021/12/20 03:55:13;;;;;;;18.00;4.03;;;;;;;1.81;100.00;102801.59;4739519;30;20051;-76
2021/12/20 03:57:41;;;;;;;21.02;3.17;;;;;;;1.81;100.00;102803.31;4744522;30;20043;-76
2021/12/20 04:00:13;;;;;;;20.85;4.05;;;;;;;1.80;100.00;102796.31;4738391;30;20850;-77
2021/12/20 04:02:44;;;;;;;16.25;2.88;;;;;;;1.77;100.00;102802.19;4726465;30;20056;-76
2021/12/20 04:05:14;;;;;;;19.27;3.97;;;;;;;1.76;100.00;102808.19;4709678;30;20188;-76
2021/12/20 04:07:42;;;;;;;17.00;3.88;;;;;;;1.76;100.00;102810.78;4751236;30;20055;-77
2021/12/20 04:10:11;;;;;;;20.75;4.63;;;;;;;1.77;100.00;102814.28;4718699;30;20153;-77
2021/12/20 04:12:39;;;;;;;16.40;3.70;;;;;;;1.75;100.00;102812.47;4737765;30;20040;-77
2021/12/20 04:15:10;;;;;;;;;;;;;;;1.74;100.00;102804.59;4729125;30;20066;-75
2021/12/20 04:17:38;;;;;;;14.10;3.67;;;;;;;1.72;100.00;102811.34;4742095;30;19925;-77
2021/12/20 04:20:08;;;;;;;17.50;2.97;;;;;;;1.70;100.00;102807.75;4743703;30;20285;-77
2021/12/20 04:22:36;;;;;;;12.07;3.22;;;;;;;1.69;100.00;102818.94;4724911;30;20067;-76
2021/12/20 04:25:05;;;;;;;21.38;5.60;;;;;;;1.68;100.00;102814.53;4755566;30;20071;-76
2021/12/20 04:27:34;;;;;;;20.90;6.10;;;;;;;1.65;100.00;102824.72;4726104;30;20517;-76
2021/12/20 04:30:09;;;;;;;25.55;7.75;;;;;;;1.62;100.00;102828.00;4730976;30;20190;-77
2021/12/20 04:32:41;;;;;;;18.65;7.15;;;;;;;1.61;100.00;102822.69;4735319;30;20044;-76
2021/12/20 04:35:12;;;;;;;25.05;7.13;;;;;;;1.56;100.00;102825.84;4750579;30;20177;-76
2021/12/20 04:37:43;;;;;;;22.05;5.78;;;;;;;1.52;100.00;102818.63;4745178;30;20040;-76
2021/12/20 04:40:18;;;;;;;20.42;5.18;;;;;;;1.48;100.00;102821.81;4742373;30;20443;-76
2021/12/20 04:42:49;;;;;;;16.48;4.53;;;;;;;1.46;100.00;102839.00;4766588;30;20414;-76
2021/12/20 04:45:19;;;;;;;18.42;4.45;;;;;;;1.43;100.00;102828.38;4737500;30;20074;-77
2021/12/20 04:47:48;;;;;;;12.27;3.25;;;;;;;1.42;100.00;102815.25;4746774;30;20059;-77
2021/12/20 04:50:17;;;;;;;14.20;3.63;;;;;;;1.40;100.00;102822.97;4738633;30;20298;-76
2021/12/20 04:52:45;;;;;;;15.55;4.60;;;;;;;1.39;100.00;102831.53;4734480;30;20055;-76
2021/12/20 04:55:14;;;;;;;20.27;4.30;;;;;;;1.39;100.00;102825.44;4732293;30;20170;-76
2021/12/20 04:57:47;;;;;;;19.95;3.92;;;;;;;1.39;100.00;102830.66;4753872;30;20533;-76
2021/12/20 05:00:20;;;;;;;22.02;4.00;;;;;;;1.38;100.00;102829.75;4745027;30;20734;-76
2021/12/20 05:02:49;;;;;;;20.95;4.82;;;;;;;1.38;100.00;102829.75;4753705;30;20054;-77
2021/12/20 05:05:21;;;;;;;17.70;3.92;;;;;;;1.38;100.00;102834.03;4748829;30;20671;-76
2021/12/20 05:07:50;;;;;;;20.45;5.00;;;;;;;1.36;100.00;102834.84;4747616;30;20071;-77
2021/12/20 05:10:26;;;;;;;25.52;6.03;;;;;;;1.34;100.00;102825.09;4749139;30;20268;-77
2021/12/20 05:12:57;;;;;;;23.65;6.15;;;;;;;1.30;100.00;102830.88;4726712;30;20056;-78
2021/12/20 05:15:26;;;;;;;;;;;;;;;1.28;100.00;102827.25;4737516;30;20051;-76
2021/12/20 05:17:56;;;;;;;15.45;3.78;;;;;;;1.26;100.00;102829.75;4741668;30;19929;-77
2021/12/20 05:20:26;;;;;;;20.73;4.38;;;;;;;1.24;100.00;102835.63;4755807;30;20048;-76
2021/12/20 05:22:58;;;;;;;15.98;3.60;;;;;;;1.23;100.00;102836.41;4736698;30;20055;-76
2021/12/20 05:25:27;;;;;;;15.95;3.85;;;;;;;1.23;100.00;102833.81;4742378;30;20051;-76
2021/12/20 05:27:58;;;;;;;12.80;3.60;;;;;;;1.20;100.00;102829.31;4729006;30;20064;-76
2021/12/20 05:30:27;;;;;;;19.58;4.03;;;;;;;1.19;100.00;102832.69;4717287;30;20136;-77
2021/12/20 05:32:56;;;;;;;19.02;4.10;;;;;;;1.16;100.00;102830.78;4726293;30;20064;-77
2021/12/20 05:35:24;;;;;;;20.42;4.25;;;;;;;1.15;100.00;102836.78;4728158;30;20048;-76
2021/12/20 05:37:53;;;;;;;18.83;4.90;;;;;;;1.13;100.00;102833.13;4737607;30;20055;-77
2021/12/20 05:40:22;;;;;;;13.18;3.55;;;;;;;1.10;100.00;102840.72;4740861;30;20523;-77
2021/12/20 05:42:51;;;;;;;14.15;3.30;;;;;;;1.07;100.00;102830.09;4755503;30;20052;-77
2021/12/20 05:45:20;;;;;;;24.92;5.03;;;;;;;1.02;100.00;102834.06;4749109;30;20047;-77
2021/12/20 05:47:48;;;;;;;17.88;3.95;;;;;;;1.01;100.00;102833.94;4748740;30;20043;-77
2021/12/20 05:50:20;;;;;;;26.63;5.50;;;;;;;1.00;100.00;102839.91;4717354;30;20059;-76
2021/12/20 05:52:48;;;;;;;14.40;4.25;;;;;;;0.99;100.00;102845.91;4732723;30;20055;-76
2021/12/20 05:55:17;;;;;;;16.08;4.82;;;;;;;0.95;100.00;102844.78;4758785;30;20414;-76
2021/12/20 05:57:46;;;;;;;22.20;5.68;;;;;;;0.91;100.00;102843.66;4726068;30;20082;-76
2021/12/20 06:00:18;;;;;;;27.90;4.15;;;;;;;0.90;100.00;102849.63;4761022;30;20059;-76
2021/12/20 06:02:50;;;;;;;22.95;4.72;;;;;;;0.90;100.00;102851.31;4744318;30;20051;-77
2021/12/20 06:05:20;;;;;;;22.58;4.55;;;;;;;0.89;100.00;102854.69;4745950;30;20059;-76
2021/12/20 06:07:49;;;;;;;21.50;4.30;;;;;;;0.87;100.00;102859.78;4713034;30;20048;-77
2021/12/20 06:10:18;;;;;;;24.13;4.38;;;;;;;0.85;100.00;102856.19;4729012;30;20040;-77
2021/12/20 06:12:47;;;;;;;17.67;3.53;;;;;;;0.85;100.00;102850.06;4775977;29;20074;-76
2021/12/20 06:15:16;;;;;;;19.70;4.15;;;;;;;0.82;100.00;102858.53;4763320;30;20051;-76
2021/12/20 06:17:44;;;;;;;19.50;3.88;;;;;;;0.81;100.00;102864.50;4735604;30;20074;-76
2021/12/20 06:20:13;;;;;;;21.35;5.30;;;;;;;0.80;100.00;102860.09;4729777;30;20063;-77
2021/12/20 06:22:42;;;;;;;12.45;3.90;;;;;;;0.78;100.00;102860.00;4720415;30;20083;-76
2021/12/20 06:25:11;;;;;;;19.98;4.43;;;;;;;0.77;100.00;102849.47;4747475;30;20056;-76
2021/12/20 06:27:39;;;;;;;19.35;3.92;;;;;;;0.76;100.00;102865.88;4747790;30;20220;-76
2021/12/20 06:30:10;;;;;;;19.83;4.00;;;;;;;0.75;100.00;102869.22;4742488;30;20047;-76
2021/12/20 06:32:41;;;;;;;19.38;4.95;;;;;;;0.73;100.00;102866.50;4724195;30;20220;-77
2021/12/20 06:35:29;;;;;;;19.52;4.93;;;;;;;0.71;100.00;102872.38;4743927;30;20277;-76
2021/12/20 06:38:01;;;;;;;17.40;3.60;;;;;;;0.69;100.00;102866.19;4718110;30;20048;-76
2021/12/20 06:40:32;;;;;;;23.38;4.35;;;;;;;0.67;100.00;102876.44;4704051;30;20048;-76
2021/12/20 06:43:03;;;;;;;15.75;4.05;;;;;;;0.65;100.00;102871.94;4732859;30;20561;-76
2021/12/20 06:45:33;;;;;;;29.55;4.05;;;;;;;0.61;100.00;102870.78;4741505;30;20047;-77
2021/12/20 06:48:03;;;;;;;22.20;3.75;;;;;;;0.57;100.00;102880.03;4710188;30;22702;-77
2021/12/20 06:50:32;;;;;;;29.43;4.47;;;;;;;0.55;100.00;102876.41;4748060;30;20044;-77
2021/12/20 06:53:01;;;;;;;16.58;4.13;;;;;;;0.56;100.00;102879.91;4713906;30;20273;-77
2021/12/20 06:55:30;;;;;;;21.60;4.68;;;;;;;0.55;100.00;102881.59;4752054;30;20519;-78
2021/12/20 06:57:58;;;;;;;22.55;4.68;;;;;;;0.52;100.00;102878.75;4743938;30;20754;-76
2021/12/20 07:00:27;;;;;;;18.77;4.70;;;;;;;0.51;100.00;102891.63;4752203;30;20380;-76
2021/12/20 07:02:56;;;;;;;21.35;4.93;;;;;;;0.48;100.00;102897.47;4737752;30;20249;-77
2021/12/20 07:05:25;;;;;;;22.85;4.53;;;;;;;0.46;100.00;102895.56;4722945;30;20039;-76
2021/12/20 07:07:53;;;;;;;27.08;5.50;;;;;;;0.44;100.00;102884.16;4726489;30;20431;-77
2021/12/20 07:10:22;;;;;;;19.05;4.43;;;;;;;0.43;100.00;102900.50;4713013;30;20403;-78
2021/12/20 07:12:51;;;;;;;23.25;4.47;;;;;;;0.42;100.00;102903.88;4739632;30;20504;-76
2021/12/20 07:15:20;;;;;;;19.77;4.70;;;;;;;0.41;100.00;102900.38;4734501;30;20055;-77
2021/12/20 07:17:48;;;;;;;33.08;5.88;;;;;;;0.40;100.00;102901.19;4714958;30;20063;-77
2021/12/20 07:20:17;;;;;;;21.35;5.75;;;;;;;0.39;100.00;102901.94;4735693;30;20059;-77
2021/12/20 07:22:47;;;;;;;16.98;4.07;;;;;;;0.37;100.00;102909.59;4712333;30;20052;-77
2021/12/20 07:25:16;;;;;;;18.90;4.57;;;;;;;0.35;100.00;102902.50;4677146;30;21181;-78
2021/12/20 07:27:51;;;;;;;25.73;5.18;;;;;;;0.33;100.00;102912.75;4749014;30;20058;-77
2021/12/20 07:30:20;;;;;;;30.27;6.53;;;;;;;0.33;100.00;102917.06;4748448;30;21018;-77
2021/12/20 07:32:54;;;;;;;15.70;4.35;;;;;;;0.31;100.00;102916.03;4765752;30;20051;-78
2021/12/20 07:35:23;;;;;;;19.70;4.93;;;;;;;0.30;100.00;102922.91;4739454;30;20044;-76
2021/12/20 07:37:54;;;;;;;12.73;4.63;;;;;;;0.29;100.00;102913.31;4731082;30;20079;-77
2021/12/20 07:40:23;;;;;;;;;;;;;;;0.28;100.00;102915.78;4735588;30;20048;-77
2021/12/20 07:42:51;;;;;;;21.80;4.45;;;;;;;0.27;100.00;102925.25;4724368;30;19926;-78
2021/12/20 07:45:20;;;;;;;22.02;5.75;;;;;;;0.25;100.00;102926.81;4729361;30;20055;-76
2021/12/20 07:47:51;;;;;;;20.67;4.68;;;;;;;0.23;100.00;102928.41;4735601;30;20044;-77
2021/12/20 07:50:20;;;;;;;15.23;4.38;;;;;;;0.24;100.00;102927.59;4735297;30;20058;-78
2021/12/20 07:52:49;;;;;;;24.63;4.70;;;;;;;0.22;100.00;102926.56;4723245;30;20040;-77
2021/12/20 07:55:18;;;;;;;27.40;4.88;;;;;;;0.22;100.00;102934.34;4727213;30;20067;-77
2021/12/20 07:57:46;;;;;;;24.48;5.07;;;;;;;0.21;100.00;102927.38;4719076;30;20495;-77
2021/12/20 08:00:18;;;;;;;13.43;4.43;;;;;;;0.20;100.00;102928.16;4727620;30;20400;-77
2021/12/20 08:02:47;;;;;;;17.55;3.85;;;;;;;0.19;100.00;102944.50;4730874;30;20055;-77
2021/12/20 08:05:18;;;;;;;20.70;4.70;;;;;;;0.18;100.00;102935.78;4701329;30;20269;-77
2021/12/20 08:07:50;;;;;;;18.08;4.68;;;;;;;0.18;100.00;102930.59;4702792;30;20052;-77
2021/12/20 08:10:22;;;;;;;21.33;4.95;;;;;;;0.16;100.00;102941.66;4758379;30;20048;-76
2021/12/20 08:12:52;;;;;;;17.05;5.38;;;;;;;0.16;100.00;102939.97;4703722;30;20046;-77
2021/12/20 08:15:26;;;;;;;21.63;5.03;;;;;;;0.16;100.00;102941.66;4730886;30;20052;-76
2021/12/20 08:17:58;;;;;;;17.05;5.00;;;;;;;0.14;100.00;102932.84;4744561;30;20047;-76
2021/12/20 08:20:27;;;;;;;19.33;4.65;;;;;;;0.15;100.00;102937.25;4731534;30;20056;-77
2021/12/20 08:22:55;;;;;;;30.55;5.75;;;;;;;0.16;100.00;102936.47;4751744;30;20052;-77
2021/12/20 08:25:24;;;;;;;15.20;4.43;;;;;;;0.16;100.00;102937.38;4734575;30;20052;-77
2021/12/20 08:27:52;;;;;;;19.90;5.30;;;;;;;0.20;100.00;102948.88;4735076;30;20058;-77
2021/12/20 08:30:22;;;;;;;18.65;4.28;;;;;;;0.22;100.00;102944.72;4727485;30;20402;-76
2021/12/20 08:32:51;;;;;;;14.18;4.57;;;;;;;0.25;100.00;102957.06;4714819;30;20406;-76
2021/12/20 08:35:20;;;;;;;16.20;4.72;;;;;;;0.27;100.00;102951.19;4746618;30;20064;-77
2021/12/20 08:37:49;;;;;;;15.85;5.03;;;;;;;0.31;100.00;102953.22;4719093;30;20040;-77
2021/12/20 08:40:18;;;;;;;20.98;6.30;;;;;;;0.34;100.00;102963.88;4718528;30;20426;-76
2021/12/20 08:42:47;;;;;;;20.20;5.18;;;;;;;0.35;100.00;102960.47;4707607;30;20048;-77
2021/12/20 08:45:17;;;;;;;17.88;5.03;;;;;;;0.37;100.00;102951.09;4702763;30;20605;-77
2021/12/20 08:47:51;;;;;;;20.10;4.57;;;;;;;0.40;100.00;102953.06;4757688;30;20498;-78
2021/12/20 08:50:22;;;;;;;15.32;4.80;;;;;;;0.42;100.00;102959.28;4745883;30;20048;-76
2021/12/20 08:52:51;;;;;;;18.67;5.38;;;;;;;0.44;100.00;102967.19;4723435;30;20055;-77
2021/12/20 08:55:21;;;;;;;19.77;4.50;;;;;;;0.46;100.00;102969.09;4709371;30;20065;-76
2021/12/20 08:57:50;;;;;;;17.00;5.32;;;;;;;0.50;100.00;102965.06;4720299;30;20047;-77
2021/12/20 09:00:23;;;;;;;19.50;5.10;;;;;;;0.54;100.00;102967.09;4725312;30;20047;-77
2021/12/20 09:02:52;;;;;;;19.83;5.45;;;;;;;0.57;100.00;102969.94;4738526;30;20047;-76
2021/12/20 09:05:23;;;;;;;14.15;4.32;;;;;;;0.62;100.00;102978.06;4755106;30;20048;-77
2021/12/20 09:07:51;;;;;;;23.23;5.93;;;;;;;0.64;100.00;102976.50;4756515;30;20502;-77
2021/12/20 09:10:21;;;;;;;16.75;4.80;;;;;;;0.67;100.00;102984.53;4705260;30;20060;-77
2021/12/20 09:12:49;;;;;;;17.95;5.90;;;;;;;0.73;100.00;102977.22;4700603;30;20043;-77
2021/12/20 09:15:18;;;;;;;25.10;5.50;;;;;;;0.76;100.00;102978.34;4714820;30;20043;-76
2021/12/20 09:17:52;;;;;;;15.68;5.05;;;;;;;0.83;100.00;102974.53;4708231;30;20044;-77
2021/12/20 09:20:23;;;;;;;17.25;4.50;;;;;;;0.90;100.00;102973.31;4738647;30;20043;-76
2021/12/20 09:22:53;;;;;;;17.02;4.65;;;;;;;0.96;100.00;102981.56;4738922;30;20044;-77
2021/12/20 09:25:26;;;;;;;18.02;4.47;;;;;;;1.05;100.00;102976.19;4736722;30;20082;-77
2021/12/20 09:27:57;;;;;;;15.18;4.38;;;;;;;1.11;100.00;102980.13;4726389;30;20051;-76
2021/12/20 09:30:29;;;;;;;20.48;4.80;;;;;;;1.19;100.00;102979.81;4735429;30;20051;-76
2021/12/20 09:33:02;;;;;;;19.75;5.68;;;;;;;1.24;100.00;102976.78;4743983;30;20284;-77
2021/12/20 09:35:31;;;;;;;13.90;4.30;;;;;;;1.31;100.00;102978.16;4753059;30;20731;-76
2021/12/20 09:38:00;;;;;;;20.30;4.95;;;;;;;1.40;100.00;102988.31;4684730;30;20282;-76
2021/12/20 09:40:36;;;;;;;12.98;4.53;;;;;;;1.48;100.00;102987.22;4742463;30;20074;-77
2021/12/20 09:43:08;;;;;;;19.10;4.50;;;;;;;1.55;100.00;102981.66;4729624;30;20063;-76
2021/12/20 09:45:40;;;;;;;17.60;4.50;;;;;;;1.62;100.00;102985.63;4734078;30;20264;-77
2021/12/20 09:48:09;;;;;;;18.88;5.25;;;;;;;1.68;100.00;102988.66;4718616;30;20048;-77
2021/12/20 09:50:38;;;;;;;19.13;4.80;;;;;;;1.77;100.00;102991.06;4751861;30;20056;-77
2021/12/20 09:53:07;;;;;;;19.92;6.03;;;;;;;1.87;100.00;102993.53;4743908;30;20048;-77
2021/12/20 09:55:36;;;;;;;18.92;5.57;;;;;;;1.97;100.00;102985.63;4747004;30;20193;-78
2021/12/20 09:58:05;;;;;;;24.98;8.20;;;;;;;2.11;100.00;102994.41;4743950;30;20051;-78
2021/12/20 10:00:40;;;;;;;22.67;6.93;;;;;;;2.26;100.00;102992.00;4717717;30;20052;-78
2021/12/20 10:03:09;;;;;;;25.58;6.65;;;;;;;2.39;100.00;102994.69;4728144;30;20049;-76
2021/12/20 10:05:38;;;;;;;25.38;6.28;;;;;;;2.51;100.00;102992.03;4710642;30;20585;-76
2021/12/20 10:08:14;;;;;;;21.38;6.43;;;;;;;2.61;100.00;102991.91;4723073;30;20067;-76
2021/12/20 10:10:44;;;;;;;20.02;5.65;;;;;;;2.72;100.00;102990.94;4703383;30;20048;-78
2021/12/20 10:13:29;;;;;;;19.77;5.63;;;;;;;2.83;100.00;102995.97;4741207;30;20250;-76
2021/12/20 10:15:59;;;;;;;19.83;5.05;;;;;;;2.92;100.00;102994.91;4727049;30;20097;-76
2021/12/20 10:18:32;;;;;;;27.80;5.72;;;;;;;3.02;100.00;103000.75;4728123;30;20139;-76
2021/12/20 10:21:02;;;;;;;18.75;4.60;;;;;;;3.10;100.00;102987.47;4736484;30;20047;-76
2021/12/20 10:23:33;;;;;;;21.25;5.93;;;;;;;3.20;100.00;102988.97;4739137;30;20059;-76
2021/12/20 10:26:13;;;;;;;16.80;4.82;;;;;;;3.29;100.00;102986.09;4716025;30;20197;-77
2021/12/20 10:28:51;;;;;;;24.13;4.20;;;;;;;3.38;100.00;102993.63;4731128;30;20086;-76
2021/12/20 10:31:24;;;;;;;20.95;5.18;;;;;;;3.45;100.00;102990.63;4731519;30;20052;-77
2021/12/20 10:33:55;;;;;;;14.30;4.68;;;;;;;3.53;100.00;102983.31;4707945;30;20056;-77
2021/12/20 10:36:26;;;;;;;10.55;3.47;;;;;;;3.62;100.00;102990.03;4753465;30;20063;-77
2021/12/20 10:38:57;;;;;;;7.40;3.15;;;;;;;3.71;100.00;102989.75;4729111;30;20055;-77
2021/12/20 10:41:37;;;;;;;;;;;;;;;3.76;100.00;102990.94;4714447;30;20059;-77
2021/12/20 10:44:19;;;;;;;15.15;4.15;;;;;;;3.84;100.00;102992.34;4707416;30;19953;-78
2021/12/20 10:46:54;;;;;;;17.83;4.90;;;;;;;3.93;100.00;102996.34;4724854;30;20422;-76
2021/12/20 10:49:27;;;;;;;22.23;5.35;;;;;;;4.00;100.00;102989.00;4744151;30;20048;-77
2021/12/20 10:51:58;;;;;;;16.73;4.28;;;;;;;4.08;100.00;102990.44;4741332;30;20082;-77
2021/12/20 10:54:31;;;;;;;15.70;4.57;;;;;;;4.15;100.00;102994.31;4745817;30;20523;-77
2021/12/20 10:57:09;;;;;;;20.15;3.92;;;;;;;4.23;100.00;102995.69;4721671;30;20082;-78
2021/12/20 10:59:37;;;;;;;21.20;4.32;;;;;;;4.30;100.00;102989.16;4746201;30;20048;-77
2021/12/20 11:05:01;;;;;;;9.70;3.43;;;;;;;4.43;100.00;102989.13;4724330;30;20047;-76
2021/12/20 11:10:05;;;;;;;16.38;4.88;;;;;;;4.59;100.00;102985.75;4731823;30;20058;-77
2021/12/20 11:12:34;;;;;;;17.40;3.40;;;;;;;4.63;100.00;102979.94;4729631;30;20733;-77
2021/12/20 11:15:10;;;;;;;7.10;2.22;;;;;;;4.69;100.00;102988.16;4713943;30;20052;-77
2021/12/20 11:17:44;;;;;;;9.82;2.10;;;;;;;4.74;100.00;102984.91;4719183;30;20059;-77
2021/12/20 11:20:19;;;;;;;7.88;2.35;;;;;;;4.82;100.00;102981.03;4701975;30;20063;-78
2021/12/20 11:22:47;;;;;;;6.53;1.80;;;;;;;4.89;100.00;102980.59;4718377;30;20556;-77
2021/12/20 11:25:16;;;;;;;7.03;1.95;;;;;;;4.94;100.00;102978.28;4732261;30;20195;-77
2021/12/20 11:27:51;;;;;;;5.72;1.67;;;;;;;4.99;100.00;102988.22;4754627;30;20383;-77
2021/12/20 11:30:23;;;;;;;6.47;1.88;;;;;;;5.04;100.00;102986.75;4705110;30;20264;-77
2021/12/20 11:32:52;;;;;;;5.90;1.75;;;;;;;5.09;100.00;102984.44;4726658;30;20059;-77
2021/12/20 11:35:24;;;;;;;5.82;1.77;;;;;;;5.13;100.00;102983.81;4729518;30;20258;-78
2021/12/20 11:37:53;;;;;;;7.25;1.85;;;;;;;5.19;100.00;102981.53;4747978;30;20058;-77
2021/12/20 11:40:22;;;;;;;10.55;2.20;;;;;;;5.25;100.00;102981.00;4715432;30;20169;-77
2021/12/20 11:42:50;;;;;;;5.35;2.30;;;;;;;5.28;100.00;102976.88;4738587;30;20064;-77
2021/12/20 11:45:20;;;;;;;9.65;2.03;;;;;;;5.32;100.00;102975.34;4755099;30;20653;-78
2021/12/20 11:48:06;;;;;;;4.63;1.63;;;;;;;5.35;100.00;102980.75;4718724;30;20059;-77
2021/12/20 11:50:43;;;;;;;5.38;1.75;;;;;;;5.38;100.00;102975.69;4717019;30;20059;-77
2021/12/20 11:53:16;;;;;;;6.68;2.25;;;;;;;5.42;100.00;102971.53;4716924;30;20650;-76
2021/12/20 11:55:51;;;;;;;10.23;2.40;;;;;;;5.46;100.00;102973.50;4722082;30;20527;-77